Time;durP1;ratioP1;P1;durP2;ratioP2;P2;SDS_P1;SDS_P2;PMS_P1;PMS_P2;Temp;Humidity;BMP_temperature;BMP_pressure;BME280_temperature;BME280_humidity;BME280_pressure;Samples;Min_cycle;Max_cycle;Signal;HPM_P1;HPM_P2
2022/03/09 00:02:30;;;;;;;6.37;2.57;;;0.90;81.70;;;;;;6282880;22;20004;-87
2022/03/09 00:05:02;;;;;;;8.03;3.30;;;0.90;81.70;;;;;;6310099;22;20010;-86
2022/03/09 00:07:37;;;;;;;7.87;2.63;;;0.80;81.70;;;;;;6281634;22;19999;-84
2022/03/09 00:10:07;;;;;;;8.50;3.23;;;0.80;81.70;;;;;;6280312;22;20091;-86
2022/03/09 00:13:02;;;;;;;13.57;3.20;;;0.70;82.00;;;;;;6284221;22;20066;-85
2022/03/09 00:15:36;;;;;;;6.43;2.60;;;0.70;82.00;;;;;;6310734;22;20010;-84
2022/03/09 00:18:10;;;;;;;5.63;2.50;;;0.60;82.80;;;;;;6283077;22;20082;-85
2022/03/09 00:21:00;;;;;;;10.43;3.73;;;0.60;83.00;;;;;;6282528;22;20011;-85
2022/03/09 00:24:01;;;;;;;6.23;3.03;;;0.50;83.50;;;;;;6280825;22;20007;-87
2022/03/09 00:26:32;;;;;;;5.67;2.23;;;0.50;83.70;;;;;;6278521;22;20000;-86
2022/03/09 00:29:25;;;;;;;9.33;2.73;;;0.50;84.00;;;;;;6279054;22;20094;-86
2022/03/09 00:32:11;;;;;;;10.48;2.60;;;0.50;84.50;;;;;;6305513;22;19995;-85
2022/03/09 00:34:37;;;;;;;5.63;2.10;;;0.50;84.50;;;;;;6305150;22;20049;-84
2022/03/09 00:40:22;;;;;;;7.83;2.67;;;0.50;84.90;;;;;;6305302;22;20010;-85
2022/03/09 00:42:55;;;;;;;8.77;2.67;;;0.50;85.10;;;;;;6276546;22;20605;-85
2022/03/09 00:45:30;;;;;;;12.93;2.90;;;0.50;85.00;;;;;;6304858;22;20048;-86
2022/03/09 00:48:01;;;;;;;7.03;2.67;;;0.40;85.20;;;;;;6305155;22;20102;-85
2022/03/09 00:50:44;;;;;;;5.57;2.40;;;0.50;85.90;;;;;;6305704;22;20421;-85
2022/03/09 00:53:14;;;;;;;5.60;2.60;;;0.40;85.50;;;;;;6274763;22;20007;-86
2022/03/09 00:55:43;;;;;;;8.03;3.07;;;0.40;85.40;;;;;;6278040;22;19995;-86
2022/03/09 00:58:20;;;;;;;5.73;2.50;;;0.40;85.50;;;;;;6273348;22;20026;-84
2022/03/09 01:00:48;;;;;;;4.87;2.53;;;0.40;85.70;;;;;;6276489;22;20039;-85
2022/03/09 01:03:23;;;;;;;6.53;2.23;;;0.40;86.00;;;;;;6277791;22;20094;-85
2022/03/09 01:05:51;;;;;;;5.10;2.10;;;0.40;85.80;;;;;;6278224;22;20015;-85
2022/03/09 01:08:25;;;;;;;6.23;2.07;;;0.40;85.70;;;;;;6305083;22;20000;-85
2022/03/09 01:11:11;;;;;;;6.60;2.50;;;0.30;86.70;;;;;;6305141;22;20330;-86
2022/03/09 01:13:47;;;;;;;7.17;2.40;;;0.40;87.30;;;;;;6305172;22;20026;-86
2022/03/09 01:16:17;;;;;;;10.57;2.93;;;0.30;86.80;;;;;;6276761;22;20007;-85
2022/03/09 01:18:48;;;;;;;4.70;1.93;;;0.30;86.70;;;;;;6278702;22;20459;-85
2022/03/09 01:21:14;;;;;;;9.10;2.37;;;0.20;86.70;;;;;;6278119;22;20040;-86
2022/03/09 01:23:42;;;;;;;6.87;2.33;;;0.30;87.10;;;;;;6277053;22;20445;-86
2022/03/09 01:26:13;;;;;;;5.67;2.17;;;0.20;87.30;;;;;;6277367;22;20502;-85
2022/03/09 01:28:41;;;;;;;6.40;2.37;;;0.20;87.70;;;;;;6278081;22;20048;-85
2022/03/09 01:31:14;;;;;;;7.67;2.20;;;0.20;87.00;;;;;;6278695;22;20089;-85
2022/03/09 01:33:40;;;;;;;7.13;2.40;;;0.20;87.00;;;;;;6277458;22;20034;-85
2022/03/09 01:36:11;;;;;;;8.33;2.67;;;0.20;87.40;;;;;;6277402;22;20621;-84
2022/03/09 01:38:43;;;;;;;6.60;2.60;;;0.20;87.10;;;;;;6278360;22;20012;-85
2022/03/09 01:41:17;;;;;;;7.43;2.47;;;0.20;86.80;;;;;;6304566;22;20047;-84
2022/03/09 01:44:03;;;;;;;6.90;2.47;;;0.20;86.50;;;;;;6277165;22;20393;-85
2022/03/09 01:46:32;;;;;;;6.43;2.53;;;0.20;86.10;;;;;;6305375;22;20469;-84
2022/03/09 01:49:03;;;;;;;5.83;2.23;;;0.20;86.30;;;;;;6278742;22;20007;-85
2022/03/09 01:51:32;;;;;;;6.03;2.57;;;0.20;87.30;;;;;;6277748;22;20144;-85
2022/03/09 01:53:58;;;;;;;7.57;2.80;;;0.20;87.40;;;;;;6277859;22;20056;-85
2022/03/09 01:56:28;;;;;;;6.87;2.67;;;0.20;87.80;;;;;;6278017;22;19999;-86
2022/03/09 01:58:54;;;;;;;5.97;2.40;;;0.10;87.80;;;;;;6277273;22;20014;-84
2022/03/09 02:01:25;;;;;;;8.03;2.73;;;0.10;87.80;;;;;;6305572;22;20094;-85
2022/03/09 02:03:51;;;;;;;5.80;2.10;;;0.10;88.00;;;;;;6278609;22;20010;-86
2022/03/09 02:06:38;;;;;;;6.53;2.53;;;0.00;88.20;;;;;;6307117;22;20333;-86
2022/03/09 02:11:57;;;;;;;5.17;2.40;;;0.00;88.80;;;;;;6307223;22;20014;-86
2022/03/09 02:14:42;;;;;;;6.40;2.40;;;0.00;87.90;;;;;;6279514;22;20007;-85
2022/03/09 02:17:40;;;;;;;6.07;2.47;;;0.00;88.00;;;;;;6306698;22;20144;-85
2022/03/09 02:20:07;;;;;;;5.67;2.43;;;0.00;88.20;;;;;;6278201;22;20029;-85
2022/03/09 02:22:53;;;;;;;5.83;2.30;;;0.00;88.50;;;;;;6277848;22;20003;-85
2022/03/09 02:25:24;;;;;;;6.77;1.80;;;0.00;88.60;;;;;;6277891;22;19999;-85
2022/03/09 02:28:05;;;;;;;7.23;2.40;;;0.00;88.60;;;;;;6278971;22;20006;-86
2022/03/09 02:30:43;;;;;;;5.60;2.17;;;0.00;88.00;;;;;;6278494;22;20056;-84
2022/03/09 02:33:09;;;;;;;4.73;2.20;;;0.00;88.60;;;;;;6315767;22;19995;-86
2022/03/09 02:35:49;;;;;;;6.30;2.53;;;-0.10;89.00;;;;;;6310627;22;20029;-88
2022/03/09 02:38:17;;;;;;;6.37;2.23;;;-0.10;89.20;;;;;;6278216;22;20003;-85
2022/03/09 02:40:46;;;;;;;6.93;2.40;;;-0.10;89.20;;;;;;6277983;22;20007;-85
2022/03/09 02:43:19;;;;;;;5.37;2.13;;;-0.10;89.50;;;;;;6277722;22;20379;-85
2022/03/09 02:45:48;;;;;;;4.10;1.63;;;-0.10;89.40;;;;;;6277257;22;20011;-86
2022/03/09 02:48:19;;;;;;;5.20;2.50;;;-0.10;89.30;;;;;;6305561;22;20444;-86
2022/03/09 02:50:45;;;;;;;7.10;2.22;;;-0.10;89.60;;;;;;6277360;22;20011;-85
2022/03/09 02:53:11;;;;;;;4.83;1.70;;;-0.10;89.80;;;;;;6304380;22;20042;-83
2022/03/09 02:55:47;;;;;;;4.63;2.00;;;-0.20;90.00;;;;;;6277412;22;20015;-85
2022/03/09 02:58:15;;;;;;;6.63;2.40;;;-0.20;89.90;;;;;;6305644;22;20006;-85
2022/03/09 03:00:41;;;;;;;8.00;2.47;;;-0.20;89.70;;;;;;6277590;22;20635;-85
2022/03/09 03:03:09;;;;;;;5.57;2.07;;;-0.20;90.00;;;;;;6277555;22;20006;-85
2022/03/09 03:05:49;;;;;;;5.03;2.30;;;-0.20;89.80;;;;;;6276577;22;20061;-85
2022/03/09 03:08:24;;;;;;;7.73;2.07;;;-0.20;89.90;;;;;;6277770;22;19995;-86
2022/03/09 03:10:59;;;;;;;6.60;2.30;;;-0.30;89.70;;;;;;6278261;22;20007;-85
2022/03/09 03:13:44;;;;;;;6.03;2.37;;;-0.30;90.10;;;;;;6277821;22;20042;-85
2022/03/09 03:16:16;;;;;;;7.30;2.27;;;-0.30;90.10;;;;;;6278632;22;20003;-86
2022/03/09 03:18:44;;;;;;;7.37;2.53;;;-0.40;90.20;;;;;;6278312;22;20707;-85
2022/03/09 03:21:15;;;;;;;6.17;2.57;;;-0.40;90.30;;;;;;6277295;22;20080;-85
2022/03/09 03:23:52;;;;;;;7.07;2.67;;;-0.50;90.60;;;;;;6276319;22;20058;-85
2022/03/09 03:26:27;;;;;;;5.23;2.07;;;-0.40;90.70;;;;;;6276965;22;20010;-84
2022/03/09 03:28:58;;;;;;;6.33;2.53;;;-0.40;90.80;;;;;;6276959;22;20007;-85
2022/03/09 03:31:35;;;;;;;5.43;2.43;;;-0.40;90.70;;;;;;6277428;22;20007;-84
2022/03/09 03:34:11;;;;;;;9.10;2.60;;;-0.50;90.70;;;;;;6277453;22;20007;-85
2022/03/09 03:36:37;;;;;;;5.57;2.20;;;-0.50;91.10;;;;;;6277346;22;20093;-85
2022/03/09 03:39:09;;;;;;;7.43;2.23;;;-0.50;91.00;;;;;;6277371;22;20015;-85
2022/03/09 03:41:47;;;;;;;10.97;2.40;;;-0.50;90.80;;;;;;6277515;22;20007;-85
2022/03/09 03:44:40;;;;;;;6.90;2.17;;;-0.50;91.00;;;;;;6276889;22;20022;-86
2022/03/09 03:47:06;;;;;;;7.47;2.15;;;-0.60;91.00;;;;;;6277492;22;20007;-84
2022/03/09 03:49:34;;;;;;;5.20;1.93;;;-0.50;91.10;;;;;;6306585;22;20004;-86
2022/03/09 03:52:00;;;;;;;7.10;2.30;;;-0.50;91.00;;;;;;6314376;22;20030;-85
2022/03/09 03:54:32;;;;;;;5.17;2.10;;;-0.50;91.00;;;;;;6323483;22;20026;-85
2022/03/09 03:57:08;;;;;;;6.43;2.75;;;-0.50;91.00;;;;;;6294048;22;20013;-83
2022/03/09 03:59:48;;;;;;;7.53;2.87;;;-0.50;91.00;;;;;;6296384;22;20060;-85
2022/03/09 04:02:29;;;;;;;6.33;2.30;;;-0.40;91.10;;;;;;6299837;22;19999;-85
2022/03/09 04:04:58;;;;;;;6.83;2.80;;;-0.50;91.00;;;;;;6298395;22;20003;-84
2022/03/09 04:07:30;;;;;;;6.87;2.50;;;-0.60;90.90;;;;;;6293825;22;20014;-86
2022/03/09 04:12:26;;;;;;;6.67;3.00;;;-0.70;91.00;;;;;;6308704;22;20023;-78
2022/03/09 04:14:53;;;;;;;6.80;2.53;;;-0.70;91.20;;;;;;6283992;22;20007;-78
2022/03/09 04:17:19;;;;;;;7.27;2.50;;;-0.70;91.60;;;;;;6286388;22;20385;-78
2022/03/09 04:19:46;;;;;;;6.97;2.53;;;-0.70;91.50;;;;;;6312037;22;20007;-78
2022/03/09 04:22:11;;;;;;;8.43;2.63;;;-0.70;91.70;;;;;;6342459;22;19999;-78
2022/03/09 04:24:37;;;;;;;9.07;2.73;;;-0.80;91.70;;;;;;6316175;22;20009;-78
2022/03/09 04:27:03;;;;;;;11.53;2.97;;;-0.80;91.80;;;;;;6316185;22;20014;-78
2022/03/09 04:29:29;;;;;;;6.63;2.97;;;-0.70;92.10;;;;;;6316518;22;20113;-78
2022/03/09 04:31:55;;;;;;;6.53;2.87;;;-0.80;92.00;;;;;;6316090;22;20003;-78
2022/03/09 04:34:21;;;;;;;6.93;2.60;;;-0.80;92.10;;;;;;6317112;22;20180;-79
2022/03/09 04:36:46;;;;;;;7.90;2.60;;;-0.80;92.00;;;;;;6318228;22;20010;-79
2022/03/09 04:39:12;;;;;;;9.70;2.73;;;-0.80;92.10;;;;;;6314730;22;20348;-79
2022/03/09 04:41:38;;;;;;;6.73;2.57;;;-0.80;92.20;;;;;;6318104;22;20066;-79
2022/03/09 04:44:04;;;;;;;7.30;2.47;;;-0.80;92.10;;;;;;6319460;22;20048;-79
2022/03/09 04:46:30;;;;;;;8.20;2.80;;;-0.80;92.20;;;;;;6345388;22;19999;-79
2022/03/09 04:48:56;;;;;;;7.37;2.40;;;-0.90;92.00;;;;;;6317836;22;20128;-79
2022/03/09 04:51:21;;;;;;;9.87;2.70;;;-0.80;92.10;;;;;;6317773;22;20003;-79
2022/03/09 04:53:47;;;;;;;7.83;2.90;;;-0.90;92.50;;;;;;6317702;22;20037;-79
2022/03/09 04:56:14;;;;;;;6.53;2.53;;;-0.90;92.60;;;;;;6318485;22;20441;-79
2022/03/09 04:58:40;;;;;;;6.53;2.60;;;-0.90;92.60;;;;;;6318238;22;20002;-79
2022/03/09 05:01:06;;;;;;;7.70;2.47;;;-0.90;92.70;;;;;;6346620;22;20003;-79
2022/03/09 05:03:34;;;;;;;6.53;2.30;;;-0.90;92.60;;;;;;6317478;22;20110;-79
2022/03/09 05:06:01;;;;;;;6.17;2.60;;;-1.00;92.70;;;;;;6345334;22;20005;-79
2022/03/09 05:08:27;;;;;;;6.13;2.50;;;-1.00;92.50;;;;;;6344859;22;20058;-79
2022/03/09 05:10:53;;;;;;;7.33;2.53;;;-1.00;92.80;;;;;;6344775;22;20006;-79
2022/03/09 05:13:20;;;;;;;5.23;1.93;;;-1.00;92.90;;;;;;6344571;22;20009;-79
2022/03/09 05:15:46;;;;;;;7.70;2.20;;;-1.00;92.90;;;;;;6345845;22;20341;-79
2022/03/09 05:18:12;;;;;;;6.43;2.57;;;-1.00;93.10;;;;;;6317128;22;20022;-79
2022/03/09 05:20:37;;;;;;;6.93;2.37;;;-1.00;93.10;;;;;;6316986;22;20002;-80
2022/03/09 05:23:04;;;;;;;5.03;2.30;;;-1.10;92.80;;;;;;6344813;22;20002;-79
2022/03/09 05:25:30;;;;;;;3.60;1.90;;;-1.10;92.80;;;;;;6344031;22;20425;-79
2022/03/09 05:27:56;;;;;;;5.63;2.57;;;-1.10;93.10;;;;;;6344576;22;20339;-80
2022/03/09 05:30:22;;;;;;;8.93;2.33;;;-1.10;93.40;;;;;;6318703;22;20011;-80
2022/03/09 05:32:48;;;;;;;10.57;2.87;;;-1.20;93.50;;;;;;6318110;22;20103;-80
2022/03/09 05:35:13;;;;;;;6.73;2.57;;;-1.20;93.50;;;;;;6317139;22;20002;-79
2022/03/09 05:37:41;;;;;;;8.80;3.27;;;-1.20;93.40;;;;;;6346163;22;20052;-79
2022/03/09 05:40:09;;;;;;;6.23;2.73;;;-1.20;93.30;;;;;;6290606;22;20007;-79
2022/03/09 05:42:36;;;;;;;6.23;2.30;;;-1.20;93.70;;;;;;6317222;22;20500;-79
2022/03/09 05:45:02;;;;;;;6.83;2.57;;;-1.20;93.90;;;;;;6316300;22;20007;-80
2022/03/09 05:47:28;;;;;;;12.30;2.67;;;-1.30;93.80;;;;;;6318613;22;20007;-80
2022/03/09 05:49:54;;;;;;;6.90;2.73;;;-1.30;94.00;;;;;;6346258;22;20025;-79
2022/03/09 05:52:19;;;;;;;5.87;2.40;;;-1.30;93.90;;;;;;6345003;22;20047;-79
2022/03/09 05:54:45;;;;;;;8.30;2.70;;;-1.30;93.90;;;;;;6345477;22;20002;-80
2022/03/09 05:57:21;;;;;;;4.97;2.00;;;-1.30;94.20;;;;;;6317951;22;20037;-79
2022/03/09 05:59:47;;;;;;;7.47;2.77;;;-1.30;94.20;;;;;;6316704;22;20105;-80
2022/03/09 06:02:13;;;;;;;4.97;2.13;;;-1.30;94.30;;;;;;6317475;22;20041;-79
2022/03/09 06:04:39;;;;;;;8.17;3.03;;;-1.30;94.40;;;;;;6317895;22;20003;-79
2022/03/09 06:07:05;;;;;;;7.80;2.70;;;-1.20;94.50;;;;;;6317557;22;20064;-80
2022/03/09 06:09:31;;;;;;;5.97;2.43;;;-1.30;94.50;;;;;;6320612;22;20367;-80
2022/03/09 06:11:57;;;;;;;6.03;2.93;;;-1.20;94.70;;;;;;6295842;22;20356;-81
2022/03/09 06:14:23;;;;;;;7.27;3.20;;;-1.20;94.40;;;;;;6349347;22;19999;-80
2022/03/09 06:16:49;;;;;;;7.30;2.33;;;-1.20;94.40;;;;;;6351822;22;20009;-80
2022/03/09 06:19:16;;;;;;;10.40;2.83;;;-1.20;94.40;;;;;;6351832;22;20033;-81
2022/03/09 06:21:42;;;;;;;11.17;3.20;;;-1.20;94.40;;;;;;6318865;22;20519;-80
2022/03/09 06:24:08;;;;;;;5.57;2.77;;;-1.10;94.40;;;;;;6319462;22;20005;-80
2022/03/09 06:26:34;;;;;;;7.97;2.80;;;-1.10;94.40;;;;;;6348472;22;19998;-80
2022/03/09 06:29:00;;;;;;;6.83;2.70;;;-1.00;94.10;;;;;;6348866;22;19995;-80
2022/03/09 06:31:25;;;;;;;5.83;2.37;;;-1.00;94.20;;;;;;6348380;22;20716;-79
2022/03/09 06:33:54;;;;;;;10.10;3.17;;;-1.00;94.10;;;;;;6348189;22;20006;-81
2022/03/09 06:36:20;;;;;;;5.67;2.23;;;-1.00;94.30;;;;;;6353491;22;19999;-80
2022/03/09 06:38:45;;;;;;;7.27;2.90;;;-0.90;94.40;;;;;;6352248;22;20006;-81
2022/03/09 06:41:12;;;;;;;7.63;3.10;;;-0.90;94.60;;;;;;6349797;22;20068;-80
2022/03/09 06:43:38;;;;;;;8.40;3.10;;;-0.80;94.10;;;;;;6352216;22;20001;-80
2022/03/09 06:46:04;;;;;;;7.13;3.07;;;-0.80;94.00;;;;;;6347718;22;20026;-81
2022/03/09 06:48:33;;;;;;;6.73;2.80;;;-0.80;94.00;;;;;;6316621;22;20006;-80
2022/03/09 06:50:59;;;;;;;7.03;2.90;;;-0.70;93.90;;;;;;6342790;22;20033;-81
2022/03/09 06:53:25;;;;;;;12.60;3.10;;;-0.60;94.00;;;;;;6313986;22;20003;-80
2022/03/09 06:55:50;;;;;;;10.53;2.97;;;-0.50;94.20;;;;;;6314973;22;20055;-80
2022/03/09 06:58:16;;;;;;;12.37;3.00;;;-0.40;93.90;;;;;;6315122;22;20011;-80
2022/03/09 07:00:42;;;;;;;7.27;3.30;;;-0.40;93.60;;;;;;6316565;22;20013;-80
2022/03/09 07:03:08;;;;;;;9.03;3.43;;;-0.30;93.60;;;;;;6345773;22;19994;-80
2022/03/09 07:05:33;;;;;;;9.50;3.13;;;-0.20;93.60;;;;;;6340419;22;20505;-80
2022/03/09 07:08:00;;;;;;;8.60;3.00;;;-0.10;93.50;;;;;;6318898;22;20081;-81
2022/03/09 07:10:26;;;;;;;9.60;3.20;;;-0.10;93.30;;;;;;6345309;22;20018;-80
2022/03/09 07:12:51;;;;;;;8.40;3.50;;;0.00;92.60;;;;;;6345729;22;20014;-80
2022/03/09 07:15:17;;;;;;;7.73;3.63;;;-0.10;92.30;;;;;;6318642;22;20011;-81
2022/03/09 07:17:45;;;;;;;8.50;2.90;;;0.00;92.40;;;;;;6349232;22;20029;-81
2022/03/09 07:20:11;;;;;;;11.07;3.43;;;-0.20;92.30;;;;;;6323195;22;20006;-80
2022/03/09 07:22:38;;;;;;;11.43;3.23;;;-0.20;92.30;;;;;;6320780;22;20003;-80
2022/03/09 07:25:04;;;;;;;9.93;3.53;;;-0.20;92.40;;;;;;6319918;22;20037;-81
2022/03/09 07:27:29;;;;;;;11.90;3.70;;;-0.20;92.40;;;;;;6320179;22;20006;-80
2022/03/09 07:29:55;;;;;;;7.67;3.90;;;-0.10;92.70;;;;;;6318058;22;20007;-81
2022/03/09 07:32:21;;;;;;;7.37;3.50;;;-0.10;92.60;;;;;;6317860;22;20003;-81
2022/03/09 07:34:47;;;;;;;8.33;3.30;;;0.10;92.60;;;;;;6345626;22;20044;-80
2022/03/09 07:37:13;;;;;;;9.70;3.57;;;0.20;92.50;;;;;;6316801;22;20003;-81
2022/03/09 07:39:38;;;;;;;10.57;3.57;;;0.40;92.10;;;;;;6316108;22;20006;-81
2022/03/09 07:42:04;;;;;;;9.27;2.93;;;0.60;91.80;;;;;;6318252;22;20080;-80
2022/03/09 07:44:30;;;;;;;13.77;2.97;;;0.70;91.60;;;;;;6347366;22;20006;-80
2022/03/09 07:46:56;;;;;;;9.27;3.10;;;0.60;91.30;;;;;;6318411;22;20006;-81
2022/03/09 07:49:22;;;;;;;6.77;2.97;;;0.60;91.40;;;;;;6318210;22;20003;-80
2022/03/09 07:51:48;;;;;;;8.23;3.20;;;0.70;91.70;;;;;;6346272;22;20010;-81
2022/03/09 07:54:14;;;;;;;9.47;3.63;;;0.90;91.80;;;;;;6346729;22;20007;-82
2022/03/09 07:56:40;;;;;;;7.47;3.70;;;0.90;92.30;;;;;;6353202;22;20078;-82
2022/03/09 07:59:06;;;;;;;7.37;3.53;;;1.10;91.90;;;;;;6352995;22;19998;-82
2022/03/09 08:01:33;;;;;;;12.90;4.03;;;1.10;91.90;;;;;;6325514;22;20037;-82
2022/03/09 08:03:58;;;;;;;8.77;3.87;;;1.20;92.10;;;;;;6355928;22;20009;-81
2022/03/09 08:06:24;;;;;;;8.93;3.57;;;1.30;92.10;;;;;;6350261;22;19995;-81
2022/03/09 08:08:50;;;;;;;9.13;3.47;;;1.40;91.80;;;;;;6353952;22;19999;-82
2022/03/09 08:11:16;;;;;;;10.57;3.60;;;1.50;91.70;;;;;;6323880;22;20037;-83
2022/03/09 08:13:43;;;;;;;13.93;3.90;;;1.60;91.80;;;;;;6355077;22;19999;-82
2022/03/09 08:16:09;;;;;;;15.90;3.70;;;1.70;91.70;;;;;;6354391;22;19994;-82
2022/03/09 08:18:38;;;;;;;9.50;3.43;;;1.70;90.90;;;;;;6356292;22;19999;-82
2022/03/09 08:21:04;;;;;;;8.37;3.67;;;1.80;90.90;;;;;;6328482;22;20013;-82
2022/03/09 08:23:30;;;;;;;10.10;3.50;;;1.80;91.00;;;;;;6327556;22;20010;-82
2022/03/09 08:25:56;;;;;;;8.83;3.17;;;1.80;90.90;;;;;;6355127;22;19995;-83
2022/03/09 08:28:23;;;;;;;9.40;3.30;;;1.90;91.30;;;;;;6355046;22;20002;-82
2022/03/09 08:30:49;;;;;;;15.00;3.43;;;1.90;91.10;;;;;;6328077;22;19995;-82
2022/03/09 08:33:17;;;;;;;11.70;3.83;;;2.00;90.70;;;;;;6325805;22;20005;-83
2022/03/09 08:35:43;;;;;;;8.33;3.60;;;1.90;90.70;;;;;;6355617;22;20005;-82
2022/03/09 08:38:09;;;;;;;8.97;3.43;;;2.00;90.40;;;;;;6356338;22;20003;-82
2022/03/09 08:40:35;;;;;;;8.07;3.30;;;1.90;90.60;;;;;;6327425;22;20044;-82
2022/03/09 08:43:01;;;;;;;7.73;2.90;;;1.90;90.80;;;;;;6327550;22;19995;-82
2022/03/09 08:45:27;;;;;;;7.27;3.50;;;2.00;90.70;;;;;;6325890;22;20085;-82
2022/03/09 08:47:53;;;;;;;12.80;4.17;;;1.80;91.00;;;;;;6355169;22;19995;-82
2022/03/09 08:50:19;;;;;;;10.30;3.90;;;1.80;90.90;;;;;;6327926;22;20006;-82
2022/03/09 08:52:46;;;;;;;8.77;3.47;;;1.90;90.90;;;;;;6357240;22;20010;-82
2022/03/09 08:55:12;;;;;;;7.13;3.00;;;2.10;90.80;;;;;;6326322;22;20007;-82
2022/03/09 08:57:39;;;;;;;8.37;3.50;;;2.30;91.00;;;;;;6328123;22;20624;-82
2022/03/09 09:00:07;;;;;;;10.57;3.43;;;2.50;90.70;;;;;;6327723;22;20337;-82
2022/03/09 09:02:33;;;;;;;9.07;3.60;;;2.60;90.40;;;;;;6327590;22;20028;-82
2022/03/09 09:04:59;;;;;;;10.00;3.63;;;2.70;90.30;;;;;;6301252;22;20060;-82
2022/03/09 09:07:25;;;;;;;10.03;3.47;;;2.80;90.50;;;;;;6355584;22;19999;-81
2022/03/09 09:09:51;;;;;;;8.80;3.40;;;2.90;90.30;;;;;;6352494;22;20003;-81
2022/03/09 09:12:17;;;;;;;9.47;3.57;;;2.90;89.60;;;;;;6352831;22;20018;-81
2022/03/09 09:14:43;;;;;;;7.00;3.23;;;3.00;89.30;;;;;;6354949;22;20025;-81
2022/03/09 09:17:09;;;;;;;9.40;4.13;;;3.20;89.60;;;;;;6301358;22;20034;-81
2022/03/09 09:19:35;;;;;;;7.90;3.37;;;3.30;88.30;;;;;;6356015;22;20329;-81
2022/03/09 09:22:01;;;;;;;8.27;2.97;;;3.70;87.20;;;;;;6356927;22;20010;-83
2022/03/09 09:24:27;;;;;;;10.37;3.20;;;3.80;85.80;;;;;;6359079;22;20018;-82
2022/03/09 09:26:53;;;;;;;13.40;3.67;;;4.00;85.90;;;;;;6358215;22;19999;-83
2022/03/09 09:29:19;;;;;;;13.40;3.77;;;4.00;86.20;;;;;;6329696;22;20027;-82
2022/03/09 09:31:49;;;;;;;9.33;3.57;;;4.10;85.90;;;;;;6355998;22;20075;-82
2022/03/09 09:34:20;;;;;;;12.17;3.87;;;4.40;86.50;;;;;;6326286;22;20030;-82
2022/03/09 09:36:47;;;;;;;9.30;3.20;;;4.50;85.70;;;;;;6326356;22;19999;-83
2022/03/09 09:39:14;;;;;;;10.27;4.17;;;4.50;85.70;;;;;;6327478;22;20028;-83
2022/03/09 09:41:47;;;;;;;10.10;4.07;;;4.60;85.70;;;;;;6328258;22;20063;-83
2022/03/09 09:44:14;;;;;;;8.93;4.40;;;4.70;85.60;;;;;;6354880;22;19994;-82
2022/03/09 09:46:41;;;;;;;9.17;3.30;;;4.80;84.90;;;;;;6354745;22;20002;-83
2022/03/09 09:49:12;;;;;;;9.20;3.10;;;5.00;84.90;;;;;;6355879;22;19995;-83
2022/03/09 09:51:40;;;;;;;9.97;4.13;;;5.20;84.30;;;;;;6355913;22;20009;-83
2022/03/09 09:54:06;;;;;;;13.83;3.93;;;5.40;82.70;;;;;;6354970;22;19995;-83
2022/03/09 09:56:37;;;;;;;10.13;4.03;;;5.60;81.60;;;;;;6326348;22;20003;-83
2022/03/09 09:59:03;;;;;;;7.43;3.30;;;5.70;80.80;;;;;;6354210;22;20002;-82
2022/03/09 10:01:29;;;;;;;8.33;3.57;;;5.70;80.70;;;;;;6355991;22;20030;-82
2022/03/09 10:03:55;;;;;;;7.67;3.20;;;5.80;80.60;;;;;;6356040;22;19999;-83
2022/03/09 10:06:20;;;;;;;11.53;4.07;;;6.00;80.70;;;;;;6355642;22;19995;-82
2022/03/09 10:09:04;;;;;;;9.00;3.83;;;6.20;80.70;;;;;;6320893;22;19994;-83
2022/03/09 10:11:52;;;;;;;10.67;3.67;;;6.30;78.30;;;;;;6326599;22;20084;-83
2022/03/09 10:14:51;;;;;;;8.53;3.77;;;6.40;77.40;;;;;;6325291;22;20031;-81
2022/03/09 10:17:19;;;;;;;6.03;3.10;;;6.50;75.60;;;;;;6353919;22;20002;-82
2022/03/09 10:19:50;;;;;;;8.50;3.53;;;6.70;77.00;;;;;;6354570;22;20058;-82
2022/03/09 10:22:41;;;;;;;8.47;3.87;;;6.80;75.00;;;;;;6325301;22;20441;-83
2022/03/09 10:25:10;;;;;;;9.13;3.93;;;6.90;75.10;;;;;;6318700;22;20029;-82
2022/03/09 10:27:46;;;;;;;10.37;3.93;;;7.00;74.70;;;;;;6324452;22;20009;-82
2022/03/09 10:30:17;;;;;;;13.07;4.40;;;7.10;73.80;;;;;;6324895;22;20003;-82
2022/03/09 10:32:42;;;;;;;8.98;3.85;;;7.20;73.90;;;;;;6352803;22;20029;-82
2022/03/09 10:35:09;;;;;;;11.07;4.25;;;7.30;74.40;;;;;;6324746;22;20085;-82
2022/03/09 10:37:39;;;;;;;8.90;4.05;;;7.50;74.20;;;;;;6325739;22;20003;-82
2022/03/09 10:40:18;;;;;;;8.52;3.13;;;7.70;73.70;;;;;;6353520;22;20005;-82
2022/03/09 10:42:44;;;;;;;11.38;4.57;;;7.60;73.00;;;;;;6354257;22;19995;-82
2022/03/09 10:45:11;;;;;;;11.90;4.75;;;7.80;72.20;;;;;;6324946;22;20570;-82
2022/03/09 10:47:42;;;;;;;12.10;5.22;;;7.90;72.20;;;;;;6352825;22;20305;-82
2022/03/09 10:50:23;;;;;;;9.70;3.30;;;8.00;71.50;;;;;;6325696;22;19999;-82
2022/03/09 10:52:57;;;;;;;9.32;4.03;;;7.90;71.00;;;;;;6325301;22;20193;-83
2022/03/09 10:55:26;;;;;;;9.80;4.50;;;8.10;71.00;;;;;;6324401;22;20009;-83
2022/03/09 10:58:05;;;;;;;9.00;4.07;;;8.20;70.30;;;;;;6352511;22;20005;-82
2022/03/09 11:00:38;;;;;;;10.43;3.92;;;8.10;69.50;;;;;;6324128;22;20011;-83
2022/03/09 11:03:09;;;;;;;11.80;4.95;;;8.30;69.30;;;;;;6351079;22;20014;-83
2022/03/09 11:05:36;;;;;;;10.18;4.20;;;8.30;69.60;;;;;;6324782;22;19995;-83
2022/03/09 11:08:03;;;;;;;10.73;4.78;;;8.40;70.10;;;;;;6351331;22;20002;-83
2022/03/09 11:10:30;;;;;;;8.95;4.50;;;8.60;70.10;;;;;;6351471;22;19995;-83
2022/03/09 11:12:56;;;;;;;9.60;4.80;;;8.80;69.80;;;;;;6326006;22;20010;-83
2022/03/09 11:15:23;;;;;;;10.02;4.60;;;9.00;67.80;;;;;;6352105;22;20006;-83
2022/03/09 11:17:49;;;;;;;10.93;4.70;;;9.20;67.90;;;;;;6324073;22;20002;-83
2022/03/09 11:20:15;;;;;;;9.93;4.45;;;9.20;67.50;;;;;;6323613;22;20032;-83
2022/03/09 11:22:42;;;;;;;12.80;5.03;;;9.20;66.60;;;;;;6323818;22;20006;-83
2022/03/09 11:25:09;;;;;;;11.80;4.88;;;9.20;67.10;;;;;;6353915;22;19994;-83
2022/03/09 11:27:46;;;;;;;10.80;5.00;;;9.10;66.90;;;;;;6324640;22;20009;-83
2022/03/09 11:30:27;;;;;;;10.30;4.65;;;9.30;67.00;;;;;;6323849;22;20490;-83
2022/03/09 11:32:55;;;;;;;10.65;4.80;;;9.40;65.60;;;;;;6325488;22;20006;-83
2022/03/09 11:35:32;;;;;;;13.45;4.28;;;9.40;66.30;;;;;;6325936;22;20022;-83
2022/03/09 11:37:58;;;;;;;12.25;4.97;;;9.30;65.70;;;;;;6325193;22;20007;-83
2022/03/09 11:40:24;;;;;;;11.32;4.68;;;9.50;64.50;;;;;;6353916;22;20030;-83
2022/03/09 11:42:50;;;;;;;9.75;4.80;;;9.50;63.80;;;;;;6325170;22;20007;-83
2022/03/09 11:45:29;;;;;;;10.60;4.60;;;9.50;63.80;;;;;;6325776;22;19999;-83
2022/03/09 11:48:00;;;;;;;9.23;4.80;;;9.60;62.80;;;;;;6346210;22;20041;-83
2022/03/09 11:50:28;;;;;;;10.25;4.95;;;9.40;63.00;;;;;;6309858;22;20031;-82
2022/03/09 11:53:06;;;;;;;9.52;4.97;;;9.40;63.10;;;;;;6319437;22;20070;-83
2022/03/09 11:55:36;;;;;;;10.25;4.88;;;9.40;61.30;;;;;;6324522;22;19999;-83
2022/03/09 11:58:12;;;;;;;9.50;4.32;;;9.60;61.80;;;;;;6353433;22;20059;-82
2022/03/09 12:01:04;;;;;;;9.48;4.68;;;9.80;61.10;;;;;;6354033;22;20048;-83
2022/03/09 12:03:38;;;;;;;17.52;4.80;;;9.80;59.40;;;;;;6326179;22;20003;-83
2022/03/09 12:06:03;;;;;;;10.35;4.60;;;9.80;59.30;;;;;;6352720;22;20335;-83
2022/03/09 12:08:45;;;;;;;10.48;4.57;;;10.00;58.90;;;;;;6350890;22;20026;-83
2022/03/09 12:11:13;;;;;;;9.73;4.85;;;10.20;58.60;;;;;;6349522;22;20006;-82
2022/03/09 12:13:46;;;;;;;14.07;5.05;;;10.40;58.10;;;;;;6326096;22;20006;-83
2022/03/09 12:16:14;;;;;;;9.68;4.57;;;10.40;57.70;;;;;;6354281;22;20077;-83
2022/03/09 12:18:51;;;;;;;10.13;5.00;;;10.40;57.40;;;;;;6325501;22;20029;-83
2022/03/09 12:21:40;;;;;;;10.23;4.65;;;10.60;57.30;;;;;;6352327;22;19999;-83
2022/03/09 12:24:06;;;;;;;8.85;4.38;;;10.70;54.90;;;;;;6327839;22;20024;-83
2022/03/09 12:26:42;;;;;;;9.80;4.03;;;10.60;55.00;;;;;;6326081;22;20022;-83
2022/03/09 12:29:20;;;;;;;11.07;4.57;;;10.70;55.50;;;;;;6328413;22;20010;-83
2022/03/09 12:32:11;;;;;;;9.70;4.75;;;10.80;54.90;;;;;;6326005;22;19995;-84
2022/03/09 12:34:39;;;;;;;10.02;4.95;;;10.80;54.60;;;;;;6353863;22;20060;-83
2022/03/09 12:37:12;;;;;;;9.23;4.47;;;11.00;54.50;;;;;;6328237;22;20003;-83
2022/03/09 12:39:39;;;;;;;9.60;4.68;;;11.10;54.10;;;;;;6329037;22;20175;-83
2022/03/09 12:42:06;;;;;;;10.85;4.60;;;11.20;54.30;;;;;;6328629;22;20011;-83
2022/03/09 12:44:37;;;;;;;10.02;4.88;;;11.20;54.70;;;;;;6327077;22;20003;-83
2022/03/09 12:47:04;;;;;;;9.75;5.03;;;11.20;55.00;;;;;;6329058;22;19995;-83
2022/03/09 12:49:43;;;;;;;10.77;4.63;;;11.30;54.80;;;;;;6318015;22;20070;-83
2022/03/09 12:52:10;;;;;;;12.60;5.43;;;11.40;55.30;;;;;;6328051;22;20006;-83
2022/03/09 12:54:37;;;;;;;11.27;4.97;;;11.50;55.80;;;;;;6355409;22;20010;-82
2022/03/09 12:57:12;;;;;;;11.07;5.30;;;11.70;55.00;;;;;;6328159;22;20022;-82
2022/03/09 12:59:41;;;;;;;10.65;4.95;;;11.60;54.10;;;;;;6357329;22;19998;-81
2022/03/09 13:02:07;;;;;;;10.15;5.13;;;11.70;55.00;;;;;;6330478;22;20002;-82
2022/03/09 13:04:35;;;;;;;12.23;5.47;;;11.80;55.30;;;;;;6356607;22;19990;-82
2022/03/09 13:07:14;;;;;;;8.68;4.72;;;11.90;54.30;;;;;;6355614;22;19999;-83
2022/03/09 13:09:44;;;;;;;9.10;4.90;;;12.00;52.70;;;;;;6357369;22;20087;-82
2022/03/09 13:12:13;;;;;;;8.45;4.68;;;12.20;51.90;;;;;;6356979;22;20167;-83
2022/03/09 13:14:42;;;;;;;9.55;4.53;;;12.30;52.10;;;;;;6328422;22;20022;-83